sensor_id;sensor_type;location;lat;lon;timestamp;P1;durP1;ratioP1;P2;durP2;ratioP2
52898;SDS011;38763;53.096;6.062;2024-01-30T00:01:35;40.53;;;26.25;;
52898;SDS011;38763;53.096;6.062;2024-01-30T00:04:01;41.08;;;26.17;;
52898;SDS011;38763;53.096;6.062;2024-01-30T00:06:27;36.88;;;25.30;;
52898;SDS011;38763;53.096;6.062;2024-01-30T00:08:53;40.42;;;28.15;;
52898;SDS011;38763;53.096;6.062;2024-01-30T00:11:18;44.17;;;27.27;;
52898;SDS011;38763;53.096;6.062;2024-01-30T00:13:44;44.30;;;26.80;;
52898;SDS011;38763;53.096;6.062;2024-01-30T00:16:19;38.95;;;26.80;;
52898;SDS011;38763;53.096;6.062;2024-01-30T00:18:51;39.60;;;25.92;;
52898;SDS011;38763;53.096;6.062;2024-01-30T00:21:18;41.17;;;27.23;;
52898;SDS011;38763;53.096;6.062;2024-01-30T00:23:44;44.78;;;27.17;;
52898;SDS011;38763;53.096;6.062;2024-01-30T00:26:10;42.63;;;27.00;;
52898;SDS011;38763;53.096;6.062;2024-01-30T00:28:36;42.58;;;26.73;;
52898;SDS011;38763;53.096;6.062;2024-01-30T00:31:03;41.35;;;26.92;;
52898;SDS011;38763;53.096;6.062;2024-01-30T00:33:29;43.47;;;27.90;;
52898;SDS011;38763;53.096;6.062;2024-01-30T00:35:55;42.97;;;26.98;;
52898;SDS011;38763;53.096;6.062;2024-01-30T00:38:20;43.13;;;27.58;;
52898;SDS011;38763;53.096;6.062;2024-01-30T00:40:46;39.05;;;26.70;;
52898;SDS011;38763;53.096;6.062;2024-01-30T00:43:12;43.30;;;27.38;;
52898;SDS011;38763;53.096;6.062;2024-01-30T00:45:37;41.53;;;27.20;;
52898;SDS011;38763;53.096;6.062;2024-01-30T00:48:03;40.22;;;27.33;;
52898;SDS011;38763;53.096;6.062;2024-01-30T00:50:29;42.97;;;28.00;;
52898;SDS011;38763;53.096;6.062;2024-01-30T00:52:54;39.88;;;27.23;;
52898;SDS011;38763;53.096;6.062;2024-01-30T00:55:20;42.80;;;27.58;;
52898;SDS011;38763;53.096;6.062;2024-01-30T00:57:46;40.75;;;27.63;;
52898;SDS011;38763;53.096;6.062;2024-01-30T01:00:12;41.72;;;26.27;;
52898;SDS011;38763;53.096;6.062;2024-01-30T01:02:41;42.53;;;27.50;;
52898;SDS011;38763;53.096;6.062;2024-01-30T01:05:07;45.92;;;28.10;;
52898;SDS011;38763;53.096;6.062;2024-01-30T01:07:33;42.13;;;26.73;;
52898;SDS011;38763;53.096;6.062;2024-01-30T01:09:59;43.05;;;27.00;;
52898;SDS011;38763;53.096;6.062;2024-01-30T01:12:25;42.22;;;27.23;;
52898;SDS011;38763;53.096;6.062;2024-01-30T01:14:51;43.08;;;27.70;;
52898;SDS011;38763;53.096;6.062;2024-01-30T01:17:16;45.47;;;28.52;;
52898;SDS011;38763;53.096;6.062;2024-01-30T01:19:43;42.63;;;27.13;;
52898;SDS011;38763;53.096;6.062;2024-01-30T01:22:09;40.17;;;26.05;;
52898;SDS011;38763;53.096;6.062;2024-01-30T01:24:35;42.60;;;27.98;;
52898;SDS011;38763;53.096;6.062;2024-01-30T01:27:01;42.97;;;28.15;;
52898;SDS011;38763;53.096;6.062;2024-01-30T01:29:27;42.35;;;28.33;;
52898;SDS011;38763;53.096;6.062;2024-01-30T01:31:56;42.08;;;27.25;;
52898;SDS011;38763;53.096;6.062;2024-01-30T01:34:22;41.25;;;26.70;;
52898;SDS011;38763;53.096;6.062;2024-01-30T01:36:50;41.50;;;26.08;;
52898;SDS011;38763;53.096;6.062;2024-01-30T01:39:16;44.67;;;27.35;;
52898;SDS011;38763;53.096;6.062;2024-01-30T01:41:42;40.85;;;26.63;;
52898;SDS011;38763;53.096;6.062;2024-01-30T01:44:08;39.75;;;25.42;;
52898;SDS011;38763;53.096;6.062;2024-01-30T01:46:34;41.53;;;28.05;;
52898;SDS011;38763;53.096;6.062;2024-01-30T01:49:00;41.35;;;27.23;;
52898;SDS011;38763;53.096;6.062;2024-01-30T01:51:30;38.65;;;25.35;;
52898;SDS011;38763;53.096;6.062;2024-01-30T01:53:58;48.00;;;27.45;;
52898;SDS011;38763;53.096;6.062;2024-01-30T01:56:30;42.80;;;26.65;;
52898;SDS011;38763;53.096;6.062;2024-01-30T01:58:59;42.45;;;26.75;;
52898;SDS011;38763;53.096;6.062;2024-01-30T02:01:27;42.08;;;26.35;;
52898;SDS011;38763;53.096;6.062;2024-01-30T02:03:54;46.22;;;28.10;;
52898;SDS011;38763;53.096;6.062;2024-01-30T02:06:20;42.45;;;26.23;;
52898;SDS011;38763;53.096;6.062;2024-01-30T02:08:46;40.22;;;26.58;;
52898;SDS011;38763;53.096;6.062;2024-01-30T02:11:12;38.63;;;25.90;;
52898;SDS011;38763;53.096;6.062;2024-01-30T02:13:38;41.22;;;27.25;;
52898;SDS011;38763;53.096;6.062;2024-01-30T02:16:03;39.22;;;25.63;;
52898;SDS011;38763;53.096;6.062;2024-01-30T02:18:29;41.90;;;26.70;;
52898;SDS011;38763;53.096;6.062;2024-01-30T02:20:56;36.78;;;25.40;;
52898;SDS011;38763;53.096;6.062;2024-01-30T02:23:23;39.80;;;26.42;;
52898;SDS011;38763;53.096;6.062;2024-01-30T02:25:52;41.42;;;27.65;;
52898;SDS011;38763;53.096;6.062;2024-01-30T02:28:18;40.47;;;26.40;;
52898;SDS011;38763;53.096;6.062;2024-01-30T02:30:45;44.08;;;27.08;;
52898;SDS011;38763;53.096;6.062;2024-01-30T02:33:11;40.92;;;26.38;;
52898;SDS011;38763;53.096;6.062;2024-01-30T02:35:37;40.17;;;26.50;;
52898;SDS011;38763;53.096;6.062;2024-01-30T02:38:03;41.90;;;26.75;;
52898;SDS011;38763;53.096;6.062;2024-01-30T02:40:29;38.95;;;26.00;;
52898;SDS011;38763;53.096;6.062;2024-01-30T02:42:56;43.42;;;27.48;;
52898;SDS011;38763;53.096;6.062;2024-01-30T02:45:22;39.95;;;25.10;;
52898;SDS011;38763;53.096;6.062;2024-01-30T02:47:48;39.78;;;25.90;;
52898;SDS011;38763;53.096;6.062;2024-01-30T02:50:14;44.50;;;25.92;;
52898;SDS011;38763;53.096;6.062;2024-01-30T02:52:40;42.25;;;26.15;;
52898;SDS011;38763;53.096;6.062;2024-01-30T02:55:06;38.47;;;25.88;;
52898;SDS011;38763;53.096;6.062;2024-01-30T02:57:31;40.65;;;26.52;;
52898;SDS011;38763;53.096;6.062;2024-01-30T02:59:57;41.10;;;25.50;;
52898;SDS011;38763;53.096;6.062;2024-01-30T03:02:26;39.78;;;26.27;;
52898;SDS011;38763;53.096;6.062;2024-01-30T03:04:52;40.03;;;26.25;;
52898;SDS011;38763;53.096;6.062;2024-01-30T03:07:17;40.15;;;25.58;;
52898;SDS011;38763;53.096;6.062;2024-01-30T03:09:43;38.65;;;25.63;;
52898;SDS011;38763;53.096;6.062;2024-01-30T03:12:09;37.20;;;25.77;;
52898;SDS011;38763;53.096;6.062;2024-01-30T03:14:35;37.83;;;25.65;;
52898;SDS011;38763;53.096;6.062;2024-01-30T03:17:01;41.40;;;26.33;;
52898;SDS011;38763;53.096;6.062;2024-01-30T03:19:27;40.97;;;25.38;;
52898;SDS011;38763;53.096;6.062;2024-01-30T03:21:53;38.95;;;26.00;;
52898;SDS011;38763;53.096;6.062;2024-01-30T03:24:18;41.38;;;27.00;;
52898;SDS011;38763;53.096;6.062;2024-01-30T03:26:44;40.42;;;26.30;;
52898;SDS011;38763;53.096;6.062;2024-01-30T03:29:10;41.25;;;26.50;;
52898;SDS011;38763;53.096;6.062;2024-01-30T03:31:35;38.85;;;26.15;;
52898;SDS011;38763;53.096;6.062;2024-01-30T03:34:01;35.88;;;24.25;;
52898;SDS011;38763;53.096;6.062;2024-01-30T03:36:27;39.30;;;24.58;;
52898;SDS011;38763;53.096;6.062;2024-01-30T03:38:53;37.20;;;25.17;;
52898;SDS011;38763;53.096;6.062;2024-01-30T03:41:19;36.80;;;23.80;;
52898;SDS011;38763;53.096;6.062;2024-01-30T03:43:44;36.38;;;24.23;;
52898;SDS011;38763;53.096;6.062;2024-01-30T03:46:13;39.13;;;24.48;;
52898;SDS011;38763;53.096;6.062;2024-01-30T03:48:39;35.30;;;23.90;;
52898;SDS011;38763;53.096;6.062;2024-01-30T03:51:05;35.35;;;24.63;;
52898;SDS011;38763;53.096;6.062;2024-01-30T03:53:31;40.03;;;24.63;;
52898;SDS011;38763;53.096;6.062;2024-01-30T03:55:56;34.40;;;23.02;;
52898;SDS011;38763;53.096;6.062;2024-01-30T03:58:22;34.30;;;22.90;;
52898;SDS011;38763;53.096;6.062;2024-01-30T04:00:47;35.28;;;23.80;;
52898;SDS011;38763;53.096;6.062;2024-01-30T04:03:16;33.75;;;23.15;;
52898;SDS011;38763;53.096;6.062;2024-01-30T04:05:41;39.13;;;23.60;;
52898;SDS011;38763;53.096;6.062;2024-01-30T04:08:07;38.42;;;23.75;;
52898;SDS011;38763;53.096;6.062;2024-01-30T04:10:33;35.92;;;22.92;;
52898;SDS011;38763;53.096;6.062;2024-01-30T04:12:59;33.50;;;23.02;;
52898;SDS011;38763;53.096;6.062;2024-01-30T04:15:25;32.90;;;21.45;;
52898;SDS011;38763;53.096;6.062;2024-01-30T04:17:51;36.03;;;23.00;;
52898;SDS011;38763;53.096;6.062;2024-01-30T04:20:17;33.90;;;22.30;;
52898;SDS011;38763;53.096;6.062;2024-01-30T04:22:43;33.38;;;23.35;;
52898;SDS011;38763;53.096;6.062;2024-01-30T04:25:09;33.55;;;22.15;;
52898;SDS011;38763;53.096;6.062;2024-01-30T04:27:35;34.15;;;20.75;;
52898;SDS011;38763;53.096;6.062;2024-01-30T04:30:00;31.88;;;21.17;;
52898;SDS011;38763;53.096;6.062;2024-01-30T04:32:26;34.25;;;21.98;;
52898;SDS011;38763;53.096;6.062;2024-01-30T04:34:52;31.98;;;21.10;;
52898;SDS011;38763;53.096;6.062;2024-01-30T04:37:17;33.25;;;21.27;;
52898;SDS011;38763;53.096;6.062;2024-01-30T04:39:43;33.97;;;21.45;;
52898;SDS011;38763;53.096;6.062;2024-01-30T04:42:08;32.75;;;20.48;;
52898;SDS011;38763;53.096;6.062;2024-01-30T04:44:34;32.47;;;21.45;;
52898;SDS011;38763;53.096;6.062;2024-01-30T04:47:00;29.48;;;19.52;;
52898;SDS011;38763;53.096;6.062;2024-01-30T04:49:26;31.80;;;19.95;;
52898;SDS011;38763;53.096;6.062;2024-01-30T04:51:54;26.42;;;18.45;;
52898;SDS011;38763;53.096;6.062;2024-01-30T04:54:21;29.58;;;19.45;;
52898;SDS011;38763;53.096;6.062;2024-01-30T04:56:46;26.45;;;18.73;;
52898;SDS011;38763;53.096;6.062;2024-01-30T04:59:12;26.02;;;18.15;;
52898;SDS011;38763;53.096;6.062;2024-01-30T05:01:37;28.17;;;17.92;;
52898;SDS011;38763;53.096;6.062;2024-01-30T05:04:03;28.05;;;17.77;;
52898;SDS011;38763;53.096;6.062;2024-01-30T05:06:29;26.52;;;17.60;;
52898;SDS011;38763;53.096;6.062;2024-01-30T05:08:55;29.48;;;18.67;;
52898;SDS011;38763;53.096;6.062;2024-01-30T05:11:20;28.33;;;17.40;;
52898;SDS011;38763;53.096;6.062;2024-01-30T05:13:46;27.00;;;17.45;;
52898;SDS011;38763;53.096;6.062;2024-01-30T05:16:12;26.50;;;17.63;;
52898;SDS011;38763;53.096;6.062;2024-01-30T05:18:38;25.92;;;16.40;;
52898;SDS011;38763;53.096;6.062;2024-01-30T05:21:04;24.35;;;16.40;;
52898;SDS011;38763;53.096;6.062;2024-01-30T05:23:30;28.50;;;17.00;;
52898;SDS011;38763;53.096;6.062;2024-01-30T05:25:56;27.30;;;17.67;;
52898;SDS011;38763;53.096;6.062;2024-01-30T05:28:21;24.90;;;17.02;;
52898;SDS011;38763;53.096;6.062;2024-01-30T05:30:47;24.77;;;16.63;;
52898;SDS011;38763;53.096;6.062;2024-01-30T05:33:12;24.25;;;15.10;;
52898;SDS011;38763;53.096;6.062;2024-01-30T05:35:38;26.17;;;16.80;;
52898;SDS011;38763;53.096;6.062;2024-01-30T05:38:04;25.02;;;16.27;;
52898;SDS011;38763;53.096;6.062;2024-01-30T05:40:30;24.92;;;15.95;;
52898;SDS011;38763;53.096;6.062;2024-01-30T05:42:56;27.70;;;17.42;;
52898;SDS011;38763;53.096;6.062;2024-01-30T05:45:25;26.23;;;16.85;;
52898;SDS011;38763;53.096;6.062;2024-01-30T05:47:52;25.40;;;16.10;;
52898;SDS011;38763;53.096;6.062;2024-01-30T05:50:18;25.10;;;16.55;;
52898;SDS011;38763;53.096;6.062;2024-01-30T05:52:44;27.35;;;17.70;;
52898;SDS011;38763;53.096;6.062;2024-01-30T05:55:11;25.95;;;16.98;;
52898;SDS011;38763;53.096;6.062;2024-01-30T05:57:37;24.80;;;17.45;;
52898;SDS011;38763;53.096;6.062;2024-01-30T06:00:04;26.63;;;16.88;;
52898;SDS011;38763;53.096;6.062;2024-01-30T06:02:30;25.55;;;17.08;;
52898;SDS011;38763;53.096;6.062;2024-01-30T06:04:56;26.52;;;17.38;;
52898;SDS011;38763;53.096;6.062;2024-01-30T06:07:22;28.67;;;18.27;;
52898;SDS011;38763;53.096;6.062;2024-01-30T06:09:47;27.27;;;18.10;;
52898;SDS011;38763;53.096;6.062;2024-01-30T06:12:13;27.17;;;17.40;;
52898;SDS011;38763;53.096;6.062;2024-01-30T06:14:39;26.63;;;17.38;;
52898;SDS011;38763;53.096;6.062;2024-01-30T06:17:05;24.38;;;15.93;;
52898;SDS011;38763;53.096;6.062;2024-01-30T06:19:30;24.45;;;15.98;;
52898;SDS011;38763;53.096;6.062;2024-01-30T06:21:56;27.35;;;17.05;;
52898;SDS011;38763;53.096;6.062;2024-01-30T06:24:22;27.00;;;16.60;;
52898;SDS011;38763;53.096;6.062;2024-01-30T06:26:48;24.50;;;16.10;;
52898;SDS011;38763;53.096;6.062;2024-01-30T06:29:13;23.42;;;15.68;;
52898;SDS011;38763;53.096;6.062;2024-01-30T06:31:43;24.23;;;16.02;;
52898;SDS011;38763;53.096;6.062;2024-01-30T06:34:11;25.10;;;16.30;;
52898;SDS011;38763;53.096;6.062;2024-01-30T06:36:37;26.52;;;15.48;;
52898;SDS011;38763;53.096;6.062;2024-01-30T06:39:03;24.30;;;15.57;;
52898;SDS011;38763;53.096;6.062;2024-01-30T06:41:29;31.10;;;16.88;;
52898;SDS011;38763;53.096;6.062;2024-01-30T06:43:55;24.63;;;16.15;;
52898;SDS011;38763;53.096;6.062;2024-01-30T06:46:21;25.08;;;16.20;;
52898;SDS011;38763;53.096;6.062;2024-01-30T06:48:47;23.98;;;16.70;;
52898;SDS011;38763;53.096;6.062;2024-01-30T06:51:12;27.02;;;16.35;;
52898;SDS011;38763;53.096;6.062;2024-01-30T06:53:38;25.70;;;16.77;;
52898;SDS011;38763;53.096;6.062;2024-01-30T06:56:04;24.95;;;16.38;;
52898;SDS011;38763;53.096;6.062;2024-01-30T06:58:30;23.70;;;16.23;;
52898;SDS011;38763;53.096;6.062;2024-01-30T07:00:56;23.05;;;14.77;;
52898;SDS011;38763;53.096;6.062;2024-01-30T07:03:21;26.48;;;15.93;;
52898;SDS011;38763;53.096;6.062;2024-01-30T07:05:47;22.88;;;14.40;;
52898;SDS011;38763;53.096;6.062;2024-01-30T07:08:14;25.05;;;15.48;;
52898;SDS011;38763;53.096;6.062;2024-01-30T07:10:42;22.08;;;15.27;;
52898;SDS011;38763;53.096;6.062;2024-01-30T07:13:08;24.90;;;15.05;;
52898;SDS011;38763;53.096;6.062;2024-01-30T07:15:35;23.23;;;15.70;;
52898;SDS011;38763;53.096;6.062;2024-01-30T07:18:01;22.67;;;14.52;;
52898;SDS011;38763;53.096;6.062;2024-01-30T07:20:27;23.85;;;15.50;;
52898;SDS011;38763;53.096;6.062;2024-01-30T07:22:55;25.17;;;14.27;;
52898;SDS011;38763;53.096;6.062;2024-01-30T07:25:21;22.33;;;15.10;;
52898;SDS011;38763;53.096;6.062;2024-01-30T07:27:46;20.98;;;14.20;;
52898;SDS011;38763;53.096;6.062;2024-01-30T07:30:12;22.65;;;15.73;;
52898;SDS011;38763;53.096;6.062;2024-01-30T07:32:38;25.23;;;16.08;;
52898;SDS011;38763;53.096;6.062;2024-01-30T07:35:04;23.10;;;15.00;;
52898;SDS011;38763;53.096;6.062;2024-01-30T07:37:29;23.58;;;14.95;;
52898;SDS011;38763;53.096;6.062;2024-01-30T07:39:55;23.58;;;14.73;;
52898;SDS011;38763;53.096;6.062;2024-01-30T07:42:21;23.08;;;14.18;;
52898;SDS011;38763;53.096;6.062;2024-01-30T07:44:46;25.15;;;15.20;;
52898;SDS011;38763;53.096;6.062;2024-01-30T07:47:12;21.95;;;14.93;;
52898;SDS011;38763;53.096;6.062;2024-01-30T07:49:38;24.00;;;14.13;;
52898;SDS011;38763;53.096;6.062;2024-01-30T07:52:04;22.27;;;14.20;;
52898;SDS011;38763;53.096;6.062;2024-01-30T07:54:30;19.70;;;13.57;;
52898;SDS011;38763;53.096;6.062;2024-01-30T07:56:58;19.50;;;13.63;;
52898;SDS011;38763;53.096;6.062;2024-01-30T07:59:25;23.42;;;13.98;;
52898;SDS011;38763;53.096;6.062;2024-01-30T08:02:03;27.30;;;15.43;;
52898;SDS011;38763;53.096;6.062;2024-01-30T08:04:28;24.38;;;14.63;;
52898;SDS011;38763;53.096;6.062;2024-01-30T08:06:54;22.77;;;14.57;;
52898;SDS011;38763;53.096;6.062;2024-01-30T08:09:20;24.15;;;13.98;;
52898;SDS011;38763;53.096;6.062;2024-01-30T08:11:45;23.60;;;14.30;;
52898;SDS011;38763;53.096;6.062;2024-01-30T08:14:11;22.77;;;14.80;;
52898;SDS011;38763;53.096;6.062;2024-01-30T08:16:38;22.95;;;14.55;;
52898;SDS011;38763;53.096;6.062;2024-01-30T08:19:04;23.02;;;14.65;;
52898;SDS011;38763;53.096;6.062;2024-01-30T08:21:30;21.90;;;15.48;;
52898;SDS011;38763;53.096;6.062;2024-01-30T08:24:01;22.25;;;14.73;;
52898;SDS011;38763;53.096;6.062;2024-01-30T08:26:30;26.38;;;14.88;;
52898;SDS011;38763;53.096;6.062;2024-01-30T08:28:58;23.35;;;14.85;;
52898;SDS011;38763;53.096;6.062;2024-01-30T08:31:24;23.90;;;14.60;;
52898;SDS011;38763;53.096;6.062;2024-01-30T08:33:50;22.48;;;14.57;;
52898;SDS011;38763;53.096;6.062;2024-01-30T08:36:16;23.90;;;14.75;;
52898;SDS011;38763;53.096;6.062;2024-01-30T08:38:42;24.08;;;14.60;;
52898;SDS011;38763;53.096;6.062;2024-01-30T08:41:08;22.38;;;14.48;;
52898;SDS011;38763;53.096;6.062;2024-01-30T08:43:34;21.00;;;14.68;;
52898;SDS011;38763;53.096;6.062;2024-01-30T08:46:01;25.77;;;14.45;;
52898;SDS011;38763;53.096;6.062;2024-01-30T08:48:27;22.55;;;13.98;;
52898;SDS011;38763;53.096;6.062;2024-01-30T08:50:53;23.30;;;15.57;;
52898;SDS011;38763;53.096;6.062;2024-01-30T08:53:19;24.50;;;13.82;;
52898;SDS011;38763;53.096;6.062;2024-01-30T08:55:44;21.05;;;14.13;;
52898;SDS011;38763;53.096;6.062;2024-01-30T08:58:10;22.60;;;14.93;;
52898;SDS011;38763;53.096;6.062;2024-01-30T09:00:36;27.02;;;15.70;;
52898;SDS011;38763;53.096;6.062;2024-01-30T09:03:02;20.92;;;14.23;;
52898;SDS011;38763;53.096;6.062;2024-01-30T09:05:29;21.50;;;14.18;;
52898;SDS011;38763;53.096;6.062;2024-01-30T09:07:54;23.05;;;13.93;;
52898;SDS011;38763;53.096;6.062;2024-01-30T09:10:20;22.77;;;14.15;;
52898;SDS011;38763;53.096;6.062;2024-01-30T09:12:46;24.20;;;15.15;;
52898;SDS011;38763;53.096;6.062;2024-01-30T09:15:12;23.10;;;14.98;;
52898;SDS011;38763;53.096;6.062;2024-01-30T09:17:38;25.00;;;15.98;;
52898;SDS011;38763;53.096;6.062;2024-01-30T09:20:04;24.08;;;15.05;;
52898;SDS011;38763;53.096;6.062;2024-01-30T09:22:30;23.38;;;14.73;;
52898;SDS011;38763;53.096;6.062;2024-01-30T09:24:56;26.08;;;15.93;;
52898;SDS011;38763;53.096;6.062;2024-01-30T09:27:22;26.98;;;15.63;;
52898;SDS011;38763;53.096;6.062;2024-01-30T09:29:48;24.33;;;15.50;;
52898;SDS011;38763;53.096;6.062;2024-01-30T09:32:14;26.63;;;15.27;;
52898;SDS011;38763;53.096;6.062;2024-01-30T09:34:39;28.83;;;15.23;;
52898;SDS011;38763;53.096;6.062;2024-01-30T09:37:05;23.80;;;15.25;;
52898;SDS011;38763;53.096;6.062;2024-01-30T09:39:30;26.13;;;16.00;;
52898;SDS011;38763;53.096;6.062;2024-01-30T09:44:30;26.08;;;15.73;;
52898;SDS011;38763;53.096;6.062;2024-01-30T09:46:57;26.05;;;15.18;;
52898;SDS011;38763;53.096;6.062;2024-01-30T09:49:29;28.48;;;15.10;;
52898;SDS011;38763;53.096;6.062;2024-01-30T09:51:59;26.55;;;15.63;;
52898;SDS011;38763;53.096;6.062;2024-01-30T09:54:25;26.08;;;15.27;;
52898;SDS011;38763;53.096;6.062;2024-01-30T09:56:51;25.23;;;14.65;;
52898;SDS011;38763;53.096;6.062;2024-01-30T09:59:16;28.30;;;15.30;;
52898;SDS011;38763;53.096;6.062;2024-01-30T10:01:42;26.77;;;14.70;;
52898;SDS011;38763;53.096;6.062;2024-01-30T10:04:08;25.55;;;14.65;;
52898;SDS011;38763;53.096;6.062;2024-01-30T10:06:34;24.05;;;14.88;;
52898;SDS011;38763;53.096;6.062;2024-01-30T10:08:59;25.40;;;15.35;;
52898;SDS011;38763;53.096;6.062;2024-01-30T10:11:25;26.23;;;14.77;;
52898;SDS011;38763;53.096;6.062;2024-01-30T10:13:52;26.92;;;15.38;;
52898;SDS011;38763;53.096;6.062;2024-01-30T10:16:17;30.20;;;15.68;;
52898;SDS011;38763;53.096;6.062;2024-01-30T10:18:43;22.20;;;13.85;;
52898;SDS011;38763;53.096;6.062;2024-01-30T10:21:09;27.05;;;14.70;;
52898;SDS011;38763;53.096;6.062;2024-01-30T10:23:35;23.65;;;14.00;;
52898;SDS011;38763;53.096;6.062;2024-01-30T10:26:04;23.05;;;14.30;;
52898;SDS011;38763;53.096;6.062;2024-01-30T10:28:32;21.70;;;13.18;;
52898;SDS011;38763;53.096;6.062;2024-01-30T10:30:58;24.15;;;12.73;;
52898;SDS011;38763;53.096;6.062;2024-01-30T10:33:25;19.77;;;11.93;;
52898;SDS011;38763;53.096;6.062;2024-01-30T10:35:53;20.33;;;11.52;;
52898;SDS011;38763;53.096;6.062;2024-01-30T10:38:28;25.02;;;12.25;;
52898;SDS011;38763;53.096;6.062;2024-01-30T10:40:56;23.42;;;11.88;;
52898;SDS011;38763;53.096;6.062;2024-01-30T10:43:22;17.58;;;11.23;;
52898;SDS011;38763;53.096;6.062;2024-01-30T10:45:55;17.15;;;10.55;;
52898;SDS011;38763;53.096;6.062;2024-01-30T10:48:28;17.00;;;10.68;;
52898;SDS011;38763;53.096;6.062;2024-01-30T10:50:57;21.27;;;10.50;;
52898;SDS011;38763;53.096;6.062;2024-01-30T10:53:25;20.45;;;9.88;;
52898;SDS011;38763;53.096;6.062;2024-01-30T10:55:52;18.25;;;9.75;;
52898;SDS011;38763;53.096;6.062;2024-01-30T10:58:19;19.85;;;10.02;;
52898;SDS011;38763;53.096;6.062;2024-01-30T11:00:46;24.92;;;10.60;;
52898;SDS011;38763;53.096;6.062;2024-01-30T11:03:12;20.70;;;10.27;;
52898;SDS011;38763;53.096;6.062;2024-01-30T11:05:40;19.48;;;9.50;;
52898;SDS011;38763;53.096;6.062;2024-01-30T11:08:12;18.40;;;7.93;;
52898;SDS011;38763;53.096;6.062;2024-01-30T11:10:46;15.70;;;7.47;;
52898;SDS011;38763;53.096;6.062;2024-01-30T11:13:13;16.27;;;7.22;;
52898;SDS011;38763;53.096;6.062;2024-01-30T11:15:42;14.68;;;5.60;;
52898;SDS011;38763;53.096;6.062;2024-01-30T11:18:07;13.07;;;5.60;;
52898;SDS011;38763;53.096;6.062;2024-01-30T11:20:33;11.50;;;4.32;;
52898;SDS011;38763;53.096;6.062;2024-01-30T11:23:00;14.48;;;3.95;;
52898;SDS011;38763;53.096;6.062;2024-01-30T11:25:31;10.90;;;3.60;;
52898;SDS011;38763;53.096;6.062;2024-01-30T11:27:57;12.20;;;3.08;;
52898;SDS011;38763;53.096;6.062;2024-01-30T11:35:31;8.27;;;2.47;;
52898;SDS011;38763;53.096;6.062;2024-01-30T11:37:58;7.32;;;2.30;;
52898;SDS011;38763;53.096;6.062;2024-01-30T11:40:27;9.20;;;2.25;;
52898;SDS011;38763;53.096;6.062;2024-01-30T11:42:54;6.65;;;2.33;;
52898;SDS011;38763;53.096;6.062;2024-01-30T11:45:23;12.43;;;2.78;;
52898;SDS011;38763;53.096;6.062;2024-01-30T11:47:49;8.70;;;2.80;;
52898;SDS011;38763;53.096;6.062;2024-01-30T11:50:15;11.48;;;2.75;;
52898;SDS011;38763;53.096;6.062;2024-01-30T11:52:41;10.70;;;2.90;;
52898;SDS011;38763;53.096;6.062;2024-01-30T11:55:08;8.75;;;2.78;;
52898;SDS011;38763;53.096;6.062;2024-01-30T11:57:34;11.95;;;2.70;;
52898;SDS011;38763;53.096;6.062;2024-01-30T12:00:02;11.52;;;2.97;;
52898;SDS011;38763;53.096;6.062;2024-01-30T12:02:33;8.90;;;2.13;;
52898;SDS011;38763;53.096;6.062;2024-01-30T12:05:02;6.15;;;2.55;;
52898;SDS011;38763;53.096;6.062;2024-01-30T12:07:29;7.65;;;2.75;;
52898;SDS011;38763;53.096;6.062;2024-01-30T12:09:55;7.80;;;2.25;;
52898;SDS011;38763;53.096;6.062;2024-01-30T12:12:25;8.40;;;1.83;;
52898;SDS011;38763;53.096;6.062;2024-01-30T12:14:51;8.30;;;2.25;;
52898;SDS011;38763;53.096;6.062;2024-01-30T12:17:51;9.23;;;2.40;;
52898;SDS011;38763;53.096;6.062;2024-01-30T12:20:13;6.60;;;2.08;;
52898;SDS011;38763;53.096;6.062;2024-01-30T12:22:48;8.27;;;2.50;;
52898;SDS011;38763;53.096;6.062;2024-01-30T12:25:17;10.18;;;2.42;;
52898;SDS011;38763;53.096;6.062;2024-01-30T12:27:45;10.50;;;2.40;;
52898;SDS011;38763;53.096;6.062;2024-01-30T12:30:15;7.03;;;1.92;;
52898;SDS011;38763;53.096;6.062;2024-01-30T12:32:42;7.10;;;1.98;;
52898;SDS011;38763;53.096;6.062;2024-01-30T12:35:12;5.30;;;1.95;;
52898;SDS011;38763;53.096;6.062;2024-01-30T12:37:39;7.05;;;1.88;;
52898;SDS011;38763;53.096;6.062;2024-01-30T12:40:09;5.53;;;1.70;;
52898;SDS011;38763;53.096;6.062;2024-01-30T12:42:36;5.65;;;1.58;;
52898;SDS011;38763;53.096;6.062;2024-01-30T12:45:02;8.27;;;1.70;;
52898;SDS011;38763;53.096;6.062;2024-01-30T12:47:31;6.32;;;1.83;;
52898;SDS011;38763;53.096;6.062;2024-01-30T12:49:57;6.57;;;1.92;;
52898;SDS011;38763;53.096;6.062;2024-01-30T12:52:23;7.13;;;2.00;;
52898;SDS011;38763;53.096;6.062;2024-01-30T12:54:52;5.32;;;1.90;;
52898;SDS011;38763;53.096;6.062;2024-01-30T12:57:18;6.15;;;1.90;;
52898;SDS011;38763;53.096;6.062;2024-01-30T12:59:44;6.38;;;1.90;;
52898;SDS011;38763;53.096;6.062;2024-01-30T13:02:11;6.20;;;1.90;;
52898;SDS011;38763;53.096;6.062;2024-01-30T13:04:37;5.88;;;1.95;;
52898;SDS011;38763;53.096;6.062;2024-01-30T13:07:03;7.15;;;2.00;;
52898;SDS011;38763;53.096;6.062;2024-01-30T13:09:29;7.20;;;2.35;;
52898;SDS011;38763;53.096;6.062;2024-01-30T13:11:59;7.82;;;2.40;;
52898;SDS011;38763;53.096;6.062;2024-01-30T13:14:27;9.25;;;2.40;;
52898;SDS011;38763;53.096;6.062;2024-01-30T13:16:53;6.00;;;2.28;;
52898;SDS011;38763;53.096;6.062;2024-01-30T13:19:18;7.13;;;2.33;;
52898;SDS011;38763;53.096;6.062;2024-01-30T13:21:44;7.97;;;2.75;;
52898;SDS011;38763;53.096;6.062;2024-01-30T13:24:10;11.50;;;2.65;;
52898;SDS011;38763;53.096;6.062;2024-01-30T13:26:36;7.75;;;2.70;;
52898;SDS011;38763;53.096;6.062;2024-01-30T13:29:02;12.32;;;2.78;;
52898;SDS011;38763;53.096;6.062;2024-01-30T13:31:28;8.75;;;2.75;;
52898;SDS011;38763;53.096;6.062;2024-01-30T13:33:54;9.32;;;3.05;;
52898;SDS011;38763;53.096;6.062;2024-01-30T13:36:20;9.35;;;3.05;;
52898;SDS011;38763;53.096;6.062;2024-01-30T13:38:46;8.23;;;3.05;;
52898;SDS011;38763;53.096;6.062;2024-01-30T13:41:12;7.30;;;2.50;;
52898;SDS011;38763;53.096;6.062;2024-01-30T13:43:38;7.47;;;3.10;;
52898;SDS011;38763;53.096;6.062;2024-01-30T13:46:03;10.90;;;3.35;;
52898;SDS011;38763;53.096;6.062;2024-01-30T13:48:29;9.57;;;3.67;;
52898;SDS011;38763;53.096;6.062;2024-01-30T13:50:56;9.55;;;3.65;;
52898;SDS011;38763;53.096;6.062;2024-01-30T13:53:21;10.13;;;3.20;;
52898;SDS011;38763;53.096;6.062;2024-01-30T13:55:47;8.90;;;3.42;;
52898;SDS011;38763;53.096;6.062;2024-01-30T13:58:13;8.07;;;3.40;;
52898;SDS011;38763;53.096;6.062;2024-01-30T14:00:38;10.63;;;3.88;;
52898;SDS011;38763;53.096;6.062;2024-01-30T14:03:04;8.40;;;3.33;;
52898;SDS011;38763;53.096;6.062;2024-01-30T14:05:30;9.55;;;3.80;;
52898;SDS011;38763;53.096;6.062;2024-01-30T14:07:56;8.68;;;3.97;;
52898;SDS011;38763;53.096;6.062;2024-01-30T14:10:23;10.02;;;4.57;;
52898;SDS011;38763;53.096;6.062;2024-01-30T14:12:49;15.50;;;4.75;;
52898;SDS011;38763;53.096;6.062;2024-01-30T14:15:14;11.82;;;4.88;;
52898;SDS011;38763;53.096;6.062;2024-01-30T14:17:42;17.25;;;5.85;;
52898;SDS011;38763;53.096;6.062;2024-01-30T14:20:10;12.45;;;5.22;;
52898;SDS011;38763;53.096;6.062;2024-01-30T14:22:36;17.40;;;4.97;;
52898;SDS011;38763;53.096;6.062;2024-01-30T14:25:02;15.18;;;5.55;;
52898;SDS011;38763;53.096;6.062;2024-01-30T14:27:29;15.88;;;5.10;;
52898;SDS011;38763;53.096;6.062;2024-01-30T14:29:55;14.02;;;4.80;;